sensor_id;sensor_type;location;lat;lon;timestamp;P1;durP1;ratioP1;P2;durP2;ratioP2
20314;SDS011;10315;50.958;13.080;2023-09-12T00:06:33;15.55;;;9.27;;
20314;SDS011;10315;50.958;13.080;2023-09-12T00:16:36;14.18;;;9.27;;
20314;SDS011;10315;50.958;13.080;2023-09-12T00:26:37;15.10;;;9.43;;
20314;SDS011;10315;50.958;13.080;2023-09-12T00:36:40;19.95;;;10.68;;
20314;SDS011;10315;50.958;13.080;2023-09-12T00:46:42;16.83;;;10.57;;
20314;SDS011;10315;50.958;13.080;2023-09-12T00:56:48;18.33;;;9.77;;
20314;SDS011;10315;50.958;13.080;2023-09-12T01:06:49;14.57;;;9.77;;
20314;SDS011;10315;50.958;13.080;2023-09-12T01:16:53;18.67;;;10.63;;
20314;SDS011;10315;50.958;13.080;2023-09-12T01:26:55;16.27;;;10.25;;
20314;SDS011;10315;50.958;13.080;2023-09-12T01:37:07;19.40;;;11.10;;
20314;SDS011;10315;50.958;13.080;2023-09-12T01:47:08;15.80;;;10.20;;
20314;SDS011;10315;50.958;13.080;2023-09-12T01:57:13;14.45;;;9.82;;
20314;SDS011;10315;50.958;13.080;2023-09-12T02:07:15;15.85;;;9.52;;
20314;SDS011;10315;50.958;13.080;2023-09-12T02:17:18;13.93;;;9.68;;
20314;SDS011;10315;50.958;13.080;2023-09-12T02:27:22;14.82;;;9.38;;
20314;SDS011;10315;50.958;13.080;2023-09-12T02:37:25;16.20;;;9.90;;
20314;SDS011;10315;50.958;13.080;2023-09-12T02:47:27;15.60;;;10.02;;
20314;SDS011;10315;50.958;13.080;2023-09-12T02:57:30;18.42;;;9.57;;
20314;SDS011;10315;50.958;13.080;2023-09-12T03:07:32;17.90;;;10.45;;
20314;SDS011;10315;50.958;13.080;2023-09-12T03:17:34;16.60;;;9.43;;
20314;SDS011;10315;50.958;13.080;2023-09-12T03:27:36;12.15;;;9.10;;
20314;SDS011;10315;50.958;13.080;2023-09-12T03:37:39;15.75;;;10.68;;
20314;SDS011;10315;50.958;13.080;2023-09-12T03:47:42;17.70;;;9.82;;
20314;SDS011;10315;50.958;13.080;2023-09-12T03:57:48;16.45;;;9.68;;
20314;SDS011;10315;50.958;13.080;2023-09-12T04:07:49;16.67;;;9.70;;
20314;SDS011;10315;50.958;13.080;2023-09-12T04:17:52;14.98;;;9.20;;
20314;SDS011;10315;50.958;13.080;2023-09-12T04:27:54;13.15;;;8.60;;
20314;SDS011;10315;50.958;13.080;2023-09-12T04:37:57;17.35;;;9.07;;
20314;SDS011;10315;50.958;13.080;2023-09-12T04:47:58;16.42;;;9.20;;
20314;SDS011;10315;50.958;13.080;2023-09-12T04:58:02;17.20;;;8.88;;
20314;SDS011;10315;50.958;13.080;2023-09-12T05:08:04;13.10;;;8.95;;
20314;SDS011;10315;50.958;13.080;2023-09-12T05:18:09;16.17;;;8.63;;
20314;SDS011;10315;50.958;13.080;2023-09-12T05:28:11;13.65;;;8.43;;
20314;SDS011;10315;50.958;13.080;2023-09-12T05:38:17;19.20;;;8.38;;
20314;SDS011;10315;50.958;13.080;2023-09-12T05:48:18;14.18;;;7.60;;
20314;SDS011;10315;50.958;13.080;2023-09-12T05:58:21;14.30;;;7.28;;
20314;SDS011;10315;50.958;13.080;2023-09-12T06:08:23;13.73;;;7.43;;
20314;SDS011;10315;50.958;13.080;2023-09-12T06:18:26;11.10;;;6.55;;
20314;SDS011;10315;50.958;13.080;2023-09-12T06:28:30;12.10;;;6.57;;
20314;SDS011;10315;50.958;13.080;2023-09-12T06:38:33;12.10;;;6.82;;
20314;SDS011;10315;50.958;13.080;2023-09-12T06:48:35;11.07;;;6.50;;
20314;SDS011;10315;50.958;13.080;2023-09-12T06:58:38;10.48;;;6.53;;
20314;SDS011;10315;50.958;13.080;2023-09-12T07:08:40;13.75;;;7.63;;
20314;SDS011;10315;50.958;13.080;2023-09-12T07:18:43;12.00;;;6.20;;
20314;SDS011;10315;50.958;13.080;2023-09-12T07:28:44;8.40;;;5.70;;
20314;SDS011;10315;50.958;13.080;2023-09-12T07:38:47;8.23;;;5.80;;
20314;SDS011;10315;50.958;13.080;2023-09-12T07:48:49;8.93;;;6.30;;
20314;SDS011;10315;50.958;13.080;2023-09-12T07:58:54;8.70;;;5.65;;
20314;SDS011;10315;50.958;13.080;2023-09-12T08:08:56;9.18;;;5.22;;
20314;SDS011;10315;50.958;13.080;2023-09-12T08:18:59;7.97;;;5.13;;
20314;SDS011;10315;50.958;13.080;2023-09-12T08:29:00;7.53;;;4.53;;
20314;SDS011;10315;50.958;13.080;2023-09-12T08:39:04;7.63;;;5.00;;
20314;SDS011;10315;50.958;13.080;2023-09-12T08:49:08;10.68;;;4.00;;
20314;SDS011;10315;50.958;13.080;2023-09-12T08:59:12;7.53;;;4.15;;
20314;SDS011;10315;50.958;13.080;2023-09-12T09:09:14;7.72;;;4.25;;
20314;SDS011;10315;50.958;13.080;2023-09-12T09:19:18;9.00;;;4.40;;
20314;SDS011;10315;50.958;13.080;2023-09-12T09:29:20;10.38;;;4.68;;
20314;SDS011;10315;50.958;13.080;2023-09-12T09:39:24;11.60;;;4.68;;
20314;SDS011;10315;50.958;13.080;2023-09-12T09:49:30;14.20;;;4.43;;
20314;SDS011;10315;50.958;13.080;2023-09-12T09:59:36;14.93;;;4.63;;
20314;SDS011;10315;50.958;13.080;2023-09-12T10:09:38;14.38;;;5.00;;
20314;SDS011;10315;50.958;13.080;2023-09-12T10:19:43;17.15;;;5.13;;
20314;SDS011;10315;50.958;13.080;2023-09-12T10:29:52;13.38;;;4.43;;
20314;SDS011;10315;50.958;13.080;2023-09-12T10:39:55;14.88;;;4.95;;
20314;SDS011;10315;50.958;13.080;2023-09-12T10:49:58;13.02;;;4.65;;
20314;SDS011;10315;50.958;13.080;2023-09-12T11:00:11;18.40;;;4.93;;
20314;SDS011;10315;50.958;13.080;2023-09-12T11:10:15;12.38;;;4.55;;
20314;SDS011;10315;50.958;13.080;2023-09-12T11:20:22;14.57;;;4.40;;
20314;SDS011;10315;50.958;13.080;2023-09-12T11:30:26;14.02;;;4.55;;
20314;SDS011;10315;50.958;13.080;2023-09-12T11:40:42;12.57;;;4.78;;
20314;SDS011;10315;50.958;13.080;2023-09-12T11:50:49;13.75;;;4.65;;
20314;SDS011;10315;50.958;13.080;2023-09-12T12:00:53;16.20;;;4.40;;
20314;SDS011;10315;50.958;13.080;2023-09-12T12:10:56;20.40;;;4.35;;
20314;SDS011;10315;50.958;13.080;2023-09-12T12:21:00;15.68;;;4.75;;
20314;SDS011;10315;50.958;13.080;2023-09-12T12:31:03;17.23;;;4.93;;
20314;SDS011;10315;50.958;13.080;2023-09-12T12:41:07;12.10;;;4.40;;
20314;SDS011;10315;50.958;13.080;2023-09-12T12:51:12;13.82;;;4.68;;
20314;SDS011;10315;50.958;13.080;2023-09-12T13:01:18;11.93;;;4.65;;
20314;SDS011;10315;50.958;13.080;2023-09-12T13:11:19;11.20;;;4.07;;
20314;SDS011;10315;50.958;13.080;2023-09-12T13:21:22;10.02;;;4.57;;
20314;SDS011;10315;50.958;13.080;2023-09-12T13:31:24;11.95;;;4.53;;
20314;SDS011;10315;50.958;13.080;2023-09-12T13:41:27;14.43;;;4.72;;
20314;SDS011;10315;50.958;13.080;2023-09-12T13:51:29;8.80;;;4.20;;
20314;SDS011;10315;50.958;13.080;2023-09-12T14:01:32;14.85;;;4.47;;
20314;SDS011;10315;50.958;13.080;2023-09-12T14:11:34;10.65;;;3.80;;
20314;SDS011;10315;50.958;13.080;2023-09-12T14:21:37;9.95;;;4.50;;
20314;SDS011;10315;50.958;13.080;2023-09-12T14:31:38;17.80;;;4.57;;
20314;SDS011;10315;50.958;13.080;2023-09-12T14:41:50;17.10;;;4.60;;
20314;SDS011;10315;50.958;13.080;2023-09-12T14:51:54;23.80;;;6.05;;
20314;SDS011;10315;50.958;13.080;2023-09-12T15:01:57;20.45;;;5.25;;
20314;SDS011;10315;50.958;13.080;2023-09-12T15:11:59;17.88;;;4.80;;
20314;SDS011;10315;50.958;13.080;2023-09-12T15:22:02;18.30;;;5.97;;
20314;SDS011;10315;50.958;13.080;2023-09-12T15:32:04;11.27;;;5.07;;
20314;SDS011;10315;50.958;13.080;2023-09-12T15:42:08;18.33;;;5.30;;
20314;SDS011;10315;50.958;13.080;2023-09-12T15:52:10;12.95;;;4.93;;
20314;SDS011;10315;50.958;13.080;2023-09-12T16:02:15;20.73;;;5.82;;
20314;SDS011;10315;50.958;13.080;2023-09-12T16:12:17;21.48;;;5.63;;
20314;SDS011;10315;50.958;13.080;2023-09-12T16:22:20;17.85;;;5.45;;
20314;SDS011;10315;50.958;13.080;2023-09-12T16:32:21;12.32;;;5.20;;
20314;SDS011;10315;50.958;13.080;2023-09-12T16:42:24;10.75;;;4.72;;
20314;SDS011;10315;50.958;13.080;2023-09-12T16:52:27;18.95;;;5.68;;
20314;SDS011;10315;50.958;13.080;2023-09-12T17:02:31;18.50;;;5.32;;
20314;SDS011;10315;50.958;13.080;2023-09-12T17:12:35;40.15;;;7.28;;
20314;SDS011;10315;50.958;13.080;2023-09-12T17:22:38;18.70;;;6.25;;
20314;SDS011;10315;50.958;13.080;2023-09-12T17:32:39;18.98;;;6.30;;
20314;SDS011;10315;50.958;13.080;2023-09-12T17:42:42;18.58;;;6.57;;
20314;SDS011;10315;50.958;13.080;2023-09-12T17:52:44;44.58;;;8.93;;
20314;SDS011;10315;50.958;13.080;2023-09-12T18:02:47;21.05;;;6.82;;
20314;SDS011;10315;50.958;13.080;2023-09-12T18:12:49;21.45;;;7.57;;
20314;SDS011;10315;50.958;13.080;2023-09-12T18:22:52;19.67;;;6.90;;
20314;SDS011;10315;50.958;13.080;2023-09-12T18:32:53;22.75;;;7.03;;
20314;SDS011;10315;50.958;13.080;2023-09-12T18:42:58;16.30;;;6.10;;
20314;SDS011;10315;50.958;13.080;2023-09-12T18:52:59;24.63;;;7.07;;
20314;SDS011;10315;50.958;13.080;2023-09-12T19:03:03;19.92;;;7.35;;
20314;SDS011;10315;50.958;13.080;2023-09-12T19:13:05;16.98;;;7.22;;
20314;SDS011;10315;50.958;13.080;2023-09-12T19:23:10;19.20;;;6.78;;
20314;SDS011;10315;50.958;13.080;2023-09-12T19:33:11;19.45;;;6.97;;
20314;SDS011;10315;50.958;13.080;2023-09-12T19:43:14;14.93;;;7.57;;
20314;SDS011;10315;50.958;13.080;2023-09-12T19:53:16;14.32;;;6.50;;
20314;SDS011;10315;50.958;13.080;2023-09-12T20:03:19;18.55;;;6.30;;
20314;SDS011;10315;50.958;13.080;2023-09-12T20:13:21;23.08;;;7.25;;
20314;SDS011;10315;50.958;13.080;2023-09-12T20:23:24;21.75;;;8.25;;
20314;SDS011;10315;50.958;13.080;2023-09-12T20:33:26;21.85;;;8.18;;
20314;SDS011;10315;50.958;13.080;2023-09-12T20:43:29;15.40;;;7.10;;
20314;SDS011;10315;50.958;13.080;2023-09-12T20:53:31;19.23;;;7.97;;
20314;SDS011;10315;50.958;13.080;2023-09-12T21:03:33;17.08;;;6.60;;
20314;SDS011;10315;50.958;13.080;2023-09-12T21:13:35;17.00;;;6.45;;
20314;SDS011;10315;50.958;13.080;2023-09-12T21:23:38;17.27;;;6.50;;
20314;SDS011;10315;50.958;13.080;2023-09-12T21:33:40;16.92;;;7.95;;
20314;SDS011;10315;50.958;13.080;2023-09-12T21:43:43;21.33;;;7.40;;
20314;SDS011;10315;50.958;13.080;2023-09-12T21:53:44;17.85;;;7.57;;
20314;SDS011;10315;50.958;13.080;2023-09-12T22:03:48;18.58;;;7.55;;
20314;SDS011;10315;50.958;13.080;2023-09-12T22:13:50;16.73;;;10.02;;
20314;SDS011;10315;50.958;13.080;2023-09-12T22:23:53;20.27;;;10.25;;
20314;SDS011;10315;50.958;13.080;2023-09-12T22:33:54;21.92;;;10.93;;
20314;SDS011;10315;50.958;13.080;2023-09-12T22:43:57;22.92;;;10.98;;
20314;SDS011;10315;50.958;13.080;2023-09-12T22:53:59;21.27;;;10.40;;
20314;SDS011;10315;50.958;13.080;2023-09-12T23:04:02;21.88;;;11.05;;
20314;SDS011;10315;50.958;13.080;2023-09-12T23:14:04;21.38;;;11.43;;
20314;SDS011;10315;50.958;13.080;2023-09-12T23:24:07;22.58;;;11.18;;
20314;SDS011;10315;50.958;13.080;2023-09-12T23:34:08;30.90;;;15.43;;
20314;SDS011;10315;50.958;13.080;2023-09-12T23:44:11;22.40;;;14.38;;
20314;SDS011;10315;50.958;13.080;2023-09-12T23:54:13;25.42;;;14.65;;
